createdAt,value
2017-05-25T00:00:34.971Z,0
2017-05-25T00:01:43.868Z,0
2017-05-25T00:02:52.761Z,0
2017-05-25T00:04:01.661Z,0
2017-05-25T00:05:11.202Z,0
2017-05-25T00:06:20.993Z,0
2017-05-25T00:07:30.214Z,0
2017-05-25T00:08:39.105Z,0
2017-05-25T00:09:48.650Z,0
2017-05-25T00:10:58.201Z,0
2017-05-25T00:12:07.140Z,0
2017-05-25T00:13:16.369Z,0
2017-05-25T00:14:25.593Z,0
2017-05-25T00:15:34.635Z,0
2017-05-25T00:16:44.173Z,0
2017-05-25T00:17:53.587Z,0
2017-05-25T00:19:02.803Z,0
2017-05-25T00:20:11.694Z,0
2017-05-25T00:21:20.908Z,0
2017-05-25T00:22:29.799Z,0
2017-05-25T00:23:38.891Z,0
2017-05-25T00:24:47.785Z,0
2017-05-25T00:25:57.006Z,0
2017-05-25T00:27:06.222Z,0
2017-05-25T00:28:16.087Z,0
2017-05-25T00:29:25.363Z,0
2017-05-25T00:30:34.907Z,0
2017-05-25T00:31:43.799Z,0
2017-05-25T00:32:52.692Z,0
2017-05-25T00:34:02.238Z,0
2017-05-25T00:35:11.279Z,0
2017-05-25T00:36:20.824Z,0
2017-05-25T00:37:29.714Z,0
2017-05-25T00:38:38.928Z,0
2017-05-25T00:39:48.470Z,0
2017-05-25T00:40:57.836Z,0
2017-05-25T00:42:06.731Z,0
2017-05-25T00:43:15.943Z,0
2017-05-25T00:44:25.547Z,0
2017-05-25T00:45:34.765Z,0
2017-05-25T00:46:44.282Z,0
2017-05-25T00:47:53.498Z,0
2017-05-25T00:49:02.713Z,0
2017-05-25T00:50:11.607Z,0
2017-05-25T00:51:20.495Z,0
2017-05-25T00:52:29.865Z,0
2017-05-25T00:53:39.136Z,0
2017-05-25T00:54:48.356Z,0
2017-05-25T00:55:57.895Z,0
2017-05-25T00:57:07.439Z,0
2017-05-25T00:58:17.553Z,0
2017-05-25T00:59:27.754Z,0
2017-05-25T01:00:36.643Z,0
2017-05-25T01:01:45.858Z,0
2017-05-25T01:02:55.735Z,0
2017-05-25T01:04:04.678Z,0
2017-05-25T01:05:13.896Z,0
2017-05-25T01:06:23.111Z,0
2017-05-25T01:07:32.007Z,0
2017-05-25T01:08:40.899Z,0
2017-05-25T01:09:50.122Z,0
2017-05-25T01:10:59.012Z,0
2017-05-25T01:12:08.234Z,0
2017-05-25T01:13:17.774Z,0
2017-05-25T01:14:27.005Z,0
2017-05-25T01:15:36.473Z,0
2017-05-25T01:16:45.370Z,0
2017-05-25T01:17:54.267Z,0
2017-05-25T01:19:03.157Z,0
2017-05-25T01:20:12.051Z,0
2017-05-25T01:21:21.093Z,0
2017-05-25T01:22:30.052Z,0
2017-05-25T01:23:39.270Z,0
2017-05-25T01:24:49.138Z,0
2017-05-25T01:25:58.356Z,0
2017-05-25T01:27:07.730Z,0
2017-05-25T01:28:16.956Z,0
2017-05-25T01:29:26.833Z,0
2017-05-25T01:30:35.726Z,0
2017-05-25T01:31:44.625Z,0
2017-05-25T01:32:53.995Z,0
2017-05-25T01:34:02.889Z,0
2017-05-25T01:35:12.103Z,0
2017-05-25T01:36:20.996Z,0
2017-05-25T01:37:29.888Z,0
2017-05-25T01:38:39.436Z,0
2017-05-25T01:39:48.660Z,0
2017-05-25T01:40:58.204Z,0
2017-05-25T01:42:07.420Z,0
2017-05-25T01:43:17.619Z,0
2017-05-25T01:44:26.986Z,0
2017-05-25T01:45:36.205Z,0
2017-05-25T01:46:45.751Z,0
2017-05-25T01:47:54.973Z,0
2017-05-25T01:49:03.866Z,0
2017-05-25T01:50:13.136Z,0
2017-05-25T01:51:22.357Z,0
2017-05-25T01:52:31.579Z,0
2017-05-25T01:53:41.126Z,0
2017-05-25T01:54:50.349Z,0
2017-05-25T01:55:59.720Z,0
2017-05-25T01:57:08.611Z,0
2017-05-25T01:58:17.567Z,0
2017-05-25T01:59:26.465Z,0
2017-05-25T02:00:35.683Z,0
2017-05-25T02:01:44.575Z,0
2017-05-25T02:02:53.802Z,0
2017-05-25T02:04:03.345Z,0
2017-05-25T02:05:12.562Z,0
2017-05-25T02:06:21.458Z,0
2017-05-25T02:07:30.498Z,0
2017-05-25T02:08:39.717Z,0
2017-05-25T02:09:49.261Z,0
2017-05-25T02:10:58.809Z,0
2017-05-25T02:12:07.705Z,0
2017-05-25T02:13:16.851Z,0
2017-05-25T02:14:25.747Z,0
2017-05-25T02:15:34.966Z,0
2017-05-25T02:16:43.859Z,0
2017-05-25T02:17:52.752Z,0
2017-05-25T02:19:02.073Z,0
2017-05-25T02:20:11.613Z,0
2017-05-25T02:21:20.509Z,0
2017-05-25T02:22:29.399Z,0
2017-05-25T02:23:38.614Z,0
2017-05-25T02:24:48.164Z,0
2017-05-25T02:25:57.383Z,0
2017-05-25T02:27:06.335Z,0
2017-05-25T02:28:16.199Z,0
2017-05-25T02:29:25.418Z,0
2017-05-25T02:30:34.782Z,0
2017-05-25T02:31:43.676Z,0
2017-05-25T02:32:52.574Z,0
2017-05-25T02:34:01.797Z,0
2017-05-25T02:35:11.338Z,0
2017-05-25T02:36:20.878Z,0
2017-05-25T02:37:30.418Z,0
2017-05-25T02:38:39.636Z,0
2017-05-25T02:39:49.178Z,0
2017-05-25T02:40:58.402Z,0
2017-05-25T02:42:07.444Z,0
2017-05-25T02:43:16.985Z,0
2017-05-25T02:44:26.871Z,0
2017-05-25T02:45:35.765Z,0
2017-05-25T02:46:45.315Z,0
2017-05-25T02:47:55.340Z,0
2017-05-25T02:49:04.563Z,0
2017-05-25T02:50:13.786Z,0
2017-05-25T02:51:22.998Z,0
2017-05-25T02:52:32.215Z,0
2017-05-25T02:53:41.260Z,0
2017-05-25T02:54:50.475Z,0
2017-05-25T02:56:00.032Z,0
2017-05-25T02:57:09.246Z,0
2017-05-25T02:58:18.469Z,0
2017-05-25T02:59:27.741Z,0
2017-05-25T03:00:37.287Z,0
2017-05-25T03:01:46.188Z,0
2017-05-25T03:02:55.735Z,0
2017-05-25T03:04:04.952Z,0
2017-05-25T03:05:14.000Z,0
2017-05-25T03:06:22.897Z,0
2017-05-25T03:07:32.768Z,0
2017-05-25T03:08:42.697Z,0
2017-05-25T03:09:51.916Z,0
2017-05-25T03:11:01.119Z,0
2017-05-25T03:12:10.332Z,0
2017-05-25T03:13:19.237Z,0
2017-05-25T03:14:28.786Z,0
2017-05-25T03:15:37.679Z,0
2017-05-25T03:16:46.721Z,5
2017-05-25T03:17:55.937Z,5
2017-05-25T03:19:04.831Z,5
2017-05-25T03:20:14.049Z,5
2017-05-25T03:21:22.940Z,10
2017-05-25T03:22:31.980Z,10
2017-05-25T03:23:41.200Z,10
2017-05-25T03:24:50.428Z,10
2017-05-25T03:25:59.648Z,10
2017-05-25T03:27:08.868Z,10
2017-05-25T03:28:17.818Z,10
2017-05-25T03:29:27.370Z,10
2017-05-25T03:30:36.261Z,10
2017-05-25T03:31:45.483Z,15
2017-05-25T03:32:55.025Z,15
2017-05-25T03:34:04.024Z,15
2017-05-25T03:35:12.919Z,15
2017-05-25T03:36:21.815Z,15
2017-05-25T03:37:31.036Z,20
2017-05-25T03:38:40.581Z,20
2017-05-25T03:39:49.903Z,20
2017-05-25T03:40:59.122Z,25
2017-05-25T03:42:08.345Z,30
2017-05-25T03:43:18.214Z,30
2017-05-25T03:44:27.763Z,30
2017-05-25T03:45:37.029Z,30
2017-05-25T03:46:46.249Z,30
2017-05-25T03:47:55.468Z,30
2017-05-25T03:49:05.018Z,30
2017-05-25T03:50:14.564Z,30
2017-05-25T03:51:23.606Z,35
2017-05-25T03:52:32.499Z,35
2017-05-25T03:53:41.721Z,40
2017-05-25T03:54:50.940Z,45
2017-05-25T03:55:59.835Z,40
2017-05-25T03:57:09.531Z,40
2017-05-25T03:58:18.750Z,45
2017-05-25T03:59:28.626Z,45
2017-05-25T04:00:37.843Z,50
2017-05-25T04:01:47.389Z,45
2017-05-25T04:02:56.613Z,50
2017-05-25T04:04:05.835Z,50
2017-05-25T04:05:15.057Z,55
2017-05-25T04:06:24.274Z,50
2017-05-25T04:07:33.493Z,50
2017-05-25T04:08:43.016Z,45
2017-05-25T04:09:52.239Z,50
2017-05-25T04:11:01.454Z,55
2017-05-25T04:12:10.671Z,50
2017-05-25T04:13:20.221Z,55
2017-05-25T04:14:29.769Z,50
2017-05-25T04:15:38.985Z,60
2017-05-25T04:16:47.877Z,60
2017-05-25T04:17:57.746Z,65
2017-05-25T04:19:06.643Z,65
2017-05-25T04:20:16.109Z,65
2017-05-25T04:21:25.656Z,55
2017-05-25T04:22:34.605Z,60
2017-05-25T04:23:43.824Z,65
2017-05-25T04:24:52.719Z,75
2017-05-25T04:26:01.780Z,90
2017-05-25T04:27:10.675Z,85
2017-05-25T04:28:19.892Z,90
2017-05-25T04:29:29.442Z,105
2017-05-25T04:30:38.335Z,95
2017-05-25T04:31:47.387Z,105
2017-05-25T04:32:56.936Z,105
2017-05-25T04:34:06.476Z,100
2017-05-25T04:35:16.021Z,90
2017-05-25T04:36:24.915Z,80
2017-05-25T04:37:34.286Z,75
2017-05-25T04:38:44.162Z,80
2017-05-25T04:39:53.378Z,95
2017-05-25T04:41:02.272Z,75
2017-05-25T04:42:11.492Z,85
2017-05-25T04:43:20.861Z,90
2017-05-25T04:44:30.737Z,100
2017-05-25T04:45:39.955Z,95
2017-05-25T04:46:49.177Z,85
2017-05-25T04:47:58.405Z,85
2017-05-25T04:49:07.507Z,75
2017-05-25T04:50:16.401Z,80
2017-05-25T04:51:25.946Z,85
2017-05-25T04:52:35.165Z,90
2017-05-25T04:53:44.711Z,90
2017-05-25T04:54:54.307Z,95
2017-05-25T04:56:03.531Z,90
2017-05-25T04:57:12.754Z,85
2017-05-25T04:58:21.648Z,85
2017-05-25T04:59:30.537Z,90
2017-05-25T05:00:39.435Z,90
2017-05-25T05:01:48.991Z,75
2017-05-25T05:02:57.882Z,75
2017-05-25T05:04:07.106Z,85
2017-05-25T05:05:15.997Z,90
2017-05-25T05:06:25.186Z,75
2017-05-25T05:07:35.056Z,85
2017-05-25T05:08:44.299Z,75
2017-05-25T05:09:53.542Z,80
2017-05-25T05:11:02.485Z,65
2017-05-25T05:12:11.728Z,60
2017-05-25T05:13:20.945Z,65
2017-05-25T05:14:30.168Z,65
2017-05-25T05:15:39.389Z,85
2017-05-25T05:16:48.277Z,85
2017-05-25T05:17:57.879Z,65
2017-05-25T05:19:07.095Z,60
2017-05-25T05:20:15.991Z,75
2017-05-25T05:21:25.207Z,105
2017-05-25T05:22:34.102Z,105
2017-05-25T05:23:43.327Z,110
2017-05-25T05:24:52.547Z,110
2017-05-25T05:26:01.436Z,95
2017-05-25T05:27:10.657Z,90
2017-05-25T05:28:19.881Z,80
2017-05-25T05:29:29.576Z,70
2017-05-25T05:30:38.796Z,70
2017-05-25T05:31:47.688Z,60
2017-05-25T05:32:56.904Z,60
2017-05-25T05:34:06.775Z,60
2017-05-25T05:35:15.770Z,65
2017-05-25T05:36:24.670Z,65
2017-05-25T05:37:33.887Z,65
2017-05-25T05:38:42.786Z,65
2017-05-25T05:39:52.015Z,70
2017-05-25T05:41:01.079Z,75
2017-05-25T05:42:10.211Z,80
2017-05-25T05:43:19.104Z,80
2017-05-25T05:44:28.326Z,85
2017-05-25T05:45:37.869Z,85
2017-05-25T05:46:46.765Z,125
2017-05-25T05:47:56.314Z,140
2017-05-25T05:49:05.537Z,125
2017-05-25T05:50:14.449Z,105
2017-05-25T05:51:23.358Z,110
2017-05-25T05:53:02.011Z,100
2017-05-25T05:54:11.636Z,95
2017-05-25T05:55:21.380Z,90
2017-05-25T05:56:30.642Z,90
2017-05-25T05:57:39.837Z,90
2017-05-25T05:58:49.449Z,90
2017-05-25T05:59:58.357Z,90
2017-05-25T06:01:07.591Z,80
2017-05-25T06:02:16.500Z,75
2017-05-25T06:03:25.782Z,70
2017-05-25T06:04:34.811Z,70
2017-05-25T06:05:44.461Z,75
2017-05-25T06:06:53.517Z,80
2017-05-25T06:08:02.599Z,80
2017-05-25T06:09:12.077Z,80
2017-05-25T06:10:21.829Z,85
2017-05-25T06:11:30.911Z,85
2017-05-25T06:12:40.285Z,90
2017-05-25T06:13:50.613Z,85
2017-05-25T06:15:00.710Z,85
2017-05-25T06:16:09.683Z,85
2017-05-25T06:17:18.916Z,75
2017-05-25T06:18:28.790Z,75
2017-05-25T06:19:37.682Z,75
2017-05-25T06:20:47.379Z,70
2017-05-25T06:21:56.562Z,60
2017-05-25T06:23:05.460Z,65
2017-05-25T06:24:15.348Z,75
2017-05-25T06:25:24.889Z,70
2017-05-25T06:26:34.257Z,70
2017-05-25T06:27:43.804Z,75
2017-05-25T06:28:53.675Z,85
2017-05-25T06:30:02.895Z,95
2017-05-25T06:31:12.115Z,90
2017-05-25T06:32:21.042Z,85
2017-05-25T06:33:30.921Z,80
2017-05-25T06:34:40.141Z,80
2017-05-25T06:35:49.359Z,75
2017-05-25T06:36:58.253Z,85
2017-05-25T06:38:07.946Z,120
2017-05-25T06:39:16.844Z,105
2017-05-25T06:40:26.392Z,105
2017-05-25T06:41:35.287Z,95
2017-05-25T06:42:44.829Z,90
2017-05-25T06:43:54.530Z,90
2017-05-25T06:45:03.754Z,85
2017-05-25T06:46:12.644Z,85
2017-05-25T06:47:21.543Z,85
2017-05-25T06:48:31.085Z,90
2017-05-25T06:49:40.732Z,85
2017-05-25T06:50:49.949Z,105
2017-05-25T06:51:59.185Z,140
2017-05-25T06:53:08.077Z,170
2017-05-25T06:54:17.622Z,175
2017-05-25T06:55:26.842Z,155
2017-05-25T06:56:36.063Z,150
2017-05-25T06:57:45.942Z,140
2017-05-25T06:58:54.835Z,140
2017-05-25T07:00:04.063Z,165
2017-05-25T07:01:13.307Z,195
2017-05-25T07:02:22.527Z,210
2017-05-25T07:03:31.424Z,210
2017-05-25T07:04:40.642Z,185
2017-05-25T07:05:49.539Z,185
2017-05-25T07:06:59.235Z,190
2017-05-25T07:08:08.161Z,190
2017-05-25T07:09:17.065Z,200
2017-05-25T07:10:26.288Z,185
2017-05-25T07:11:35.835Z,190
2017-05-25T07:12:45.383Z,185
2017-05-25T07:13:54.938Z,175
2017-05-25T07:15:04.487Z,170
2017-05-25T07:16:14.045Z,190
2017-05-25T07:17:24.170Z,165
2017-05-25T07:18:33.233Z,135
2017-05-25T07:19:42.130Z,125
2017-05-25T07:20:51.670Z,140
2017-05-25T07:22:00.890Z,150
2017-05-25T07:23:09.787Z,150
2017-05-25T07:24:19.357Z,230
2017-05-25T07:25:28.945Z,315
2017-05-25T07:26:38.490Z,230
2017-05-25T07:27:47.713Z,275
2017-05-25T07:28:57.678Z,310
2017-05-25T07:30:07.396Z,385
2017-05-25T07:31:16.293Z,420
2017-05-25T07:32:25.186Z,365
2017-05-25T07:33:34.084Z,385
2017-05-25T07:34:42.976Z,395
2017-05-25T07:35:52.894Z,380
2017-05-25T07:37:02.493Z,400
2017-05-25T07:38:11.720Z,390
2017-05-25T07:39:20.949Z,375
2017-05-25T07:40:30.174Z,335
2017-05-25T07:41:39.218Z,325
2017-05-25T07:42:48.459Z,305
2017-05-25T07:43:57.682Z,340
2017-05-25T07:45:07.229Z,315
2017-05-25T07:46:16.129Z,285
2017-05-25T07:47:25.028Z,305
2017-05-25T07:48:34.574Z,320
2017-05-25T07:49:44.449Z,280
2017-05-25T07:50:53.343Z,305
2017-05-25T07:52:02.900Z,320
2017-05-25T07:53:12.175Z,345
2017-05-25T07:54:21.080Z,400
2017-05-25T07:55:29.974Z,400
2017-05-25T07:56:39.199Z,440
2017-05-25T07:57:48.096Z,450
2017-05-25T07:58:57.377Z,510
2017-05-25T08:00:07.251Z,460
2017-05-25T08:01:16.474Z,470
2017-05-25T08:02:25.697Z,500
2017-05-25T08:03:34.920Z,495
2017-05-25T08:04:44.141Z,480
2017-05-25T08:05:53.369Z,505
2017-05-25T08:07:02.591Z,460
2017-05-25T08:08:12.140Z,470
2017-05-25T08:09:21.044Z,415
2017-05-25T08:10:30.096Z,405
2017-05-25T08:11:39.319Z,525
2017-05-25T08:12:48.871Z,530
2017-05-25T08:13:57.772Z,525
2017-05-25T08:15:07.318Z,490
2017-05-25T08:16:16.595Z,415
2017-05-25T08:17:25.815Z,430
2017-05-25T08:18:35.360Z,470
2017-05-25T08:19:44.592Z,485
2017-05-25T08:20:53.812Z,535
2017-05-25T08:22:03.079Z,500
2017-05-25T08:23:11.980Z,455
2017-05-25T08:24:21.205Z,495
2017-05-25T08:25:30.841Z,530
2017-05-25T08:26:40.552Z,565
2017-05-25T08:27:50.582Z,535
2017-05-25T08:29:00.460Z,485
2017-05-25T08:30:09.681Z,425
2017-05-25T08:31:18.905Z,400
2017-05-25T08:32:27.804Z,360
2017-05-25T08:33:37.088Z,280
2017-05-25T08:34:46.311Z,275
2017-05-25T08:35:55.863Z,305
2017-05-25T08:37:05.088Z,270
2017-05-25T08:38:14.310Z,280
2017-05-25T08:39:23.634Z,310
2017-05-25T08:40:32.856Z,300
2017-05-25T08:41:42.407Z,305
2017-05-25T08:42:51.707Z,325
2017-05-25T08:44:00.933Z,325
2017-05-25T08:45:10.304Z,260
2017-05-25T08:46:19.530Z,255
2017-05-25T08:47:28.765Z,260
2017-05-25T08:48:37.987Z,285
2017-05-25T08:49:47.534Z,320
2017-05-25T08:50:56.632Z,340
2017-05-25T08:52:05.856Z,355
2017-05-25T08:53:15.096Z,380
2017-05-25T08:54:23.998Z,345
2017-05-25T08:55:33.222Z,380
2017-05-25T08:56:42.215Z,370
2017-05-25T08:57:51.438Z,430
2017-05-25T08:59:00.660Z,465
2017-05-25T09:00:09.559Z,305
2017-05-25T09:01:18.455Z,275
2017-05-25T09:02:27.786Z,305
2017-05-25T09:03:36.688Z,295
2017-05-25T09:04:46.236Z,315
2017-05-25T09:05:55.460Z,365
2017-05-25T09:07:04.685Z,490
2017-05-25T09:08:14.709Z,560
2017-05-25T09:09:23.953Z,570
2017-05-25T09:10:33.498Z,585
2017-05-25T09:11:42.452Z,515
2017-05-25T09:12:51.679Z,510
2017-05-25T09:14:01.858Z,545
2017-05-25T09:15:10.765Z,500
2017-05-25T09:16:19.672Z,375
2017-05-25T09:17:28.903Z,335
2017-05-25T09:18:38.127Z,440
2017-05-25T09:19:47.500Z,575
2017-05-25T09:20:56.397Z,570
2017-05-25T09:22:05.309Z,575
2017-05-25T09:23:14.533Z,550
2017-05-25T09:24:24.097Z,535
2017-05-25T09:25:33.200Z,580
2017-05-25T09:26:42.422Z,525
2017-05-25T09:27:51.643Z,570
2017-05-25T09:29:01.011Z,685
2017-05-25T09:30:10.244Z,675
2017-05-25T09:31:19.242Z,630
2017-05-25T09:32:28.789Z,660
2017-05-25T09:33:38.985Z,630
2017-05-25T09:34:47.882Z,620
2017-05-25T09:35:57.115Z,555
2017-05-25T09:37:06.313Z,465
2017-05-25T09:38:15.863Z,410
2017-05-25T09:39:25.415Z,365
2017-05-25T09:40:34.637Z,405
2017-05-25T09:41:43.879Z,570
2017-05-25T09:42:53.082Z,750
2017-05-25T09:44:02.308Z,570
2017-05-25T09:45:11.205Z,475
2017-05-25T09:46:20.434Z,445
2017-05-25T09:47:29.327Z,470
2017-05-25T09:48:39.356Z,555
2017-05-25T09:49:48.582Z,635
2017-05-25T09:50:57.528Z,665
2017-05-25T09:52:06.432Z,605
2017-05-25T09:53:15.666Z,595
2017-05-25T09:54:25.342Z,545
2017-05-25T09:55:34.889Z,545
2017-05-25T09:56:43.786Z,510
2017-05-25T09:57:52.688Z,575
2017-05-25T09:59:02.305Z,605
2017-05-25T10:00:11.516Z,585
2017-05-25T10:01:20.743Z,655
2017-05-25T10:02:29.651Z,705
2017-05-25T10:03:38.549Z,705
2017-05-25T10:04:47.823Z,585
2017-05-25T10:05:57.199Z,495
2017-05-25T10:07:06.751Z,465
2017-05-25T10:08:16.306Z,440
2017-05-25T10:09:25.536Z,410
2017-05-25T10:10:34.428Z,395
2017-05-25T10:11:43.750Z,435
2017-05-25T10:12:52.976Z,525
2017-05-25T10:14:02.533Z,640
2017-05-25T10:15:11.432Z,725
2017-05-25T10:16:20.654Z,650
2017-05-25T10:17:29.983Z,415
2017-05-25T10:18:39.534Z,305
2017-05-25T10:19:49.083Z,285
2017-05-25T10:20:57.998Z,295
2017-05-25T10:22:06.892Z,290
2017-05-25T10:23:15.938Z,305
2017-05-25T10:24:25.170Z,350
2017-05-25T10:25:34.073Z,330
2017-05-25T10:26:43.628Z,325
2017-05-25T10:27:52.853Z,365
2017-05-25T10:29:02.275Z,385
2017-05-25T10:30:11.180Z,430
2017-05-25T10:31:20.401Z,500
2017-05-25T10:32:29.301Z,695
2017-05-25T10:33:39.183Z,525
2017-05-25T10:34:49.429Z,490
2017-05-25T10:35:58.665Z,560
2017-05-25T10:37:07.888Z,685
2017-05-25T10:38:17.117Z,740
2017-05-25T10:39:26.669Z,580
2017-05-25T10:40:36.317Z,625
2017-05-25T10:41:45.537Z,805
2017-05-25T10:42:54.765Z,780
2017-05-25T10:44:04.005Z,715
2017-05-25T10:45:12.903Z,775
2017-05-25T10:46:22.415Z,725
2017-05-25T10:47:31.314Z,745
2017-05-25T10:48:40.540Z,705
2017-05-25T10:49:49.507Z,690
2017-05-25T10:50:58.405Z,645
2017-05-25T10:52:07.355Z,590
2017-05-25T10:53:16.591Z,715
2017-05-25T10:54:25.820Z,625
2017-05-25T10:55:35.046Z,570
2017-05-25T10:56:44.275Z,730
2017-05-25T10:57:53.650Z,810
2017-05-25T10:59:03.528Z,765
2017-05-25T11:00:12.430Z,675
2017-05-25T11:01:21.650Z,700
2017-05-25T11:02:31.534Z,685
2017-05-25T11:03:41.190Z,700
2017-05-25T11:04:50.092Z,755
2017-05-25T11:05:59.643Z,635
2017-05-25T11:07:08.544Z,530
2017-05-25T11:08:17.771Z,465
2017-05-25T11:09:27.156Z,500
2017-05-25T11:10:36.389Z,600
2017-05-25T11:11:45.612Z,685
2017-05-25T11:12:55.498Z,715
2017-05-25T11:14:04.398Z,710
2017-05-25T11:15:13.298Z,675
2017-05-25T11:16:22.197Z,800
2017-05-25T11:17:31.434Z,845
2017-05-25T11:18:40.984Z,760
2017-05-25T11:19:50.547Z,815
2017-05-25T11:20:59.946Z,735
2017-05-25T11:22:09.169Z,815
2017-05-25T11:23:18.073Z,835
2017-05-25T11:24:27.962Z,875
2017-05-25T11:25:37.186Z,820
2017-05-25T11:26:47.033Z,840
2017-05-25T11:27:56.263Z,795
2017-05-25T11:29:05.489Z,760
2017-05-25T11:30:14.717Z,760
2017-05-25T11:31:23.944Z,785
2017-05-25T11:32:33.226Z,700
2017-05-25T11:33:42.453Z,775
2017-05-25T11:34:52.005Z,735
2017-05-25T11:36:01.233Z,815
2017-05-25T11:37:10.138Z,830
2017-05-25T11:38:19.938Z,720
2017-05-25T11:39:29.500Z,475
2017-05-25T11:40:38.402Z,670
2017-05-25T11:41:47.964Z,655
2017-05-25T11:42:56.874Z,750
2017-05-25T11:44:05.937Z,955
2017-05-25T11:45:14.844Z,720
2017-05-25T11:46:24.076Z,800
2017-05-25T11:47:33.317Z,910
2017-05-25T11:48:42.548Z,1055
2017-05-25T11:49:51.618Z,875
2017-05-25T11:51:00.843Z,1320
2017-05-25T11:52:09.741Z,935
2017-05-25T11:53:19.292Z,2085
2017-05-25T11:54:28.521Z,1415
2017-05-25T11:55:37.999Z,1635
2017-05-25T11:56:46.901Z,905
2017-05-25T11:57:56.454Z,965
2017-05-25T11:59:06.010Z,825
2017-05-25T12:00:14.914Z,1060
2017-05-25T12:01:24.198Z,1100
2017-05-25T12:02:33.099Z,1395
2017-05-25T12:03:43.365Z,3500
2017-05-25T12:04:52.588Z,3540
2017-05-25T12:06:01.550Z,1140
2017-05-25T12:07:11.206Z,1605
2017-05-25T12:08:20.764Z,1160
2017-05-25T12:09:29.992Z,915
2017-05-25T12:10:38.894Z,880
2017-05-25T12:11:48.122Z,850
2017-05-25T12:12:57.824Z,1035
2017-05-25T12:14:07.049Z,1095
2017-05-25T12:15:16.282Z,1075
2017-05-25T12:16:25.833Z,1085
2017-05-25T12:17:35.063Z,910
2017-05-25T12:18:45.267Z,1685
2017-05-25T12:19:54.831Z,1385
2017-05-25T12:21:03.737Z,3505
2017-05-25T12:22:12.650Z,2665
2017-05-25T12:23:22.200Z,1580
2017-05-25T12:24:31.914Z,1535
2017-05-25T12:25:41.147Z,1460
2017-05-25T12:26:50.377Z,2320
2017-05-25T12:27:59.613Z,2110
2017-05-25T12:29:08.844Z,1845
2017-05-25T12:30:18.226Z,3310
2017-05-25T12:31:27.459Z,3325
2017-05-25T12:32:36.687Z,1135
2017-05-25T12:33:45.597Z,915
2017-05-25T12:34:54.502Z,1875
2017-05-25T12:36:03.555Z,1220
2017-05-25T12:37:12.457Z,1130
2017-05-25T12:38:22.019Z,1700
2017-05-25T12:39:31.575Z,1335
2017-05-25T12:40:40.806Z,1485
2017-05-25T12:41:50.144Z,1290
2017-05-25T12:42:59.700Z,2365
2017-05-25T12:44:08.928Z,2960
2017-05-25T12:45:17.831Z,1080
2017-05-25T12:46:26.735Z,1525
2017-05-25T12:47:35.796Z,2300
2017-05-25T12:48:45.690Z,2485
2017-05-25T12:49:54.600Z,1100
2017-05-25T12:51:03.836Z,1195
2017-05-25T12:52:13.072Z,1180
2017-05-25T12:53:22.029Z,2520
2017-05-25T12:54:31.755Z,4015
2017-05-25T12:55:40.989Z,2820
2017-05-25T12:56:50.222Z,3280
2017-05-25T12:57:59.455Z,2055
2017-05-25T12:59:08.513Z,2210
2017-05-25T13:00:17.746Z,1910
2017-05-25T13:01:26.653Z,2540
2017-05-25T13:02:35.880Z,1870
2017-05-25T13:03:44.787Z,2705
2017-05-25T13:04:54.825Z,1935
2017-05-25T13:06:03.734Z,1925
2017-05-25T13:07:12.654Z,1980
2017-05-25T13:08:22.215Z,1775
2017-05-25T13:09:31.781Z,2035
2017-05-25T13:10:40.688Z,2110
2017-05-25T13:11:49.919Z,1800
2017-05-25T13:12:59.154Z,1875
2017-05-25T13:14:08.384Z,1845
2017-05-25T13:15:17.342Z,1890
2017-05-25T13:16:26.248Z,1800
2017-05-25T13:17:35.481Z,1930
2017-05-25T13:18:44.722Z,1685
2017-05-25T13:19:53.955Z,1555
2017-05-25T13:21:03.189Z,1670
2017-05-25T13:22:12.403Z,1590
2017-05-25T13:23:21.644Z,1630
2017-05-25T13:24:30.884Z,1675
2017-05-25T13:25:40.119Z,1725
2017-05-25T13:26:50.326Z,1700
2017-05-25T13:27:59.926Z,2100
2017-05-25T13:29:09.181Z,2160
2017-05-25T13:30:18.087Z,2455
2017-05-25T13:31:26.997Z,1955
2017-05-25T13:32:35.909Z,1910
2017-05-25T13:33:45.622Z,1960
2017-05-25T13:34:54.853Z,1890
2017-05-25T13:36:04.085Z,1930
2017-05-25T13:37:12.991Z,2090
2017-05-25T13:38:21.896Z,1900
2017-05-25T13:39:31.396Z,1680
2017-05-25T13:40:40.638Z,2450
2017-05-25T13:41:50.193Z,2035
2017-05-25T13:42:59.757Z,2045
2017-05-25T13:44:08.997Z,1895
2017-05-25T13:45:18.052Z,1755
2017-05-25T13:46:26.958Z,1665
2017-05-25T13:47:36.195Z,1545
2017-05-25T13:48:46.409Z,1405
2017-05-25T13:49:55.970Z,1120
2017-05-25T13:51:05.304Z,1285
2017-05-25T13:52:14.550Z,1110
2017-05-25T13:53:24.108Z,1285
2017-05-25T13:54:33.168Z,1540
2017-05-25T13:55:42.727Z,1145
2017-05-25T13:56:52.163Z,1235
2017-05-25T13:58:01.729Z,1460
2017-05-25T13:59:10.637Z,1500
2017-05-25T14:00:19.870Z,1335
2017-05-25T14:01:28.780Z,1265
2017-05-25T14:02:38.014Z,1270
2017-05-25T14:03:47.901Z,1285
2017-05-25T14:04:57.135Z,1290
2017-05-25T14:06:06.686Z,1285
2017-05-25T14:07:15.917Z,1260
2017-05-25T14:08:25.798Z,1175
2017-05-25T14:09:35.354Z,1195
2017-05-25T14:10:44.609Z,1270
2017-05-25T14:11:53.524Z,1315
2017-05-25T14:13:02.764Z,1370
2017-05-25T14:14:11.975Z,1485
2017-05-25T14:15:21.215Z,1490
2017-05-25T14:16:30.137Z,1320
2017-05-25T14:17:39.390Z,1265
2017-05-25T14:18:48.627Z,1260
2017-05-25T14:19:58.057Z,1305
2017-05-25T14:21:06.966Z,1350
2017-05-25T14:22:15.889Z,1520
2017-05-25T14:23:25.122Z,1535
2017-05-25T14:24:34.679Z,1670
2017-05-25T14:25:43.791Z,2045
2017-05-25T14:26:52.706Z,1435
2017-05-25T14:28:02.590Z,1440
2017-05-25T14:29:11.839Z,1365
2017-05-25T14:30:21.074Z,1340
2017-05-25T14:31:30.035Z,1310
2017-05-25T14:32:38.939Z,1435
2017-05-25T14:33:48.186Z,1380
2017-05-25T14:34:57.748Z,1555
2017-05-25T14:36:06.993Z,1315
2017-05-25T14:37:16.497Z,1305
2017-05-25T14:38:25.723Z,1255
2017-05-25T14:39:35.606Z,1255
2017-05-25T14:40:44.509Z,1195
2017-05-25T14:41:53.420Z,1255
2017-05-25T14:43:02.899Z,1260
2017-05-25T14:44:11.806Z,1310
2017-05-25T14:45:20.709Z,1385
2017-05-25T14:46:29.618Z,1440
2017-05-25T14:47:38.521Z,1450
2017-05-25T14:48:48.465Z,1455
2017-05-25T14:49:57.710Z,1430
2017-05-25T14:51:06.615Z,1420
2017-05-25T14:52:15.850Z,1485
2017-05-25T14:53:24.754Z,1290
2017-05-25T14:54:34.036Z,1265
2017-05-25T14:55:43.269Z,1240
2017-05-25T14:56:52.826Z,1250
2017-05-25T14:58:02.066Z,1275
2017-05-25T14:59:10.969Z,1230
2017-05-25T15:00:19.879Z,1285
2017-05-25T15:01:28.786Z,1270
2017-05-25T15:02:38.339Z,1125
2017-05-25T15:03:47.902Z,1085
2017-05-25T15:04:56.811Z,1085
2017-05-25T15:06:05.919Z,1070
2017-05-25T15:07:15.148Z,1105
2017-05-25T15:08:24.053Z,1045
2017-05-25T15:09:33.617Z,1015
2017-05-25T15:10:42.850Z,975
2017-05-25T15:11:52.128Z,970
2017-05-25T15:13:01.682Z,950
2017-05-25T15:14:10.589Z,955
2017-05-25T15:15:19.822Z,960
2017-05-25T15:16:29.051Z,960
2017-05-25T15:17:38.331Z,955
2017-05-25T15:18:47.885Z,950
2017-05-25T15:19:57.766Z,945
2017-05-25T15:21:06.667Z,950
2017-05-25T15:22:15.566Z,945
2017-05-25T15:23:25.123Z,980
2017-05-25T15:24:34.677Z,945
2017-05-25T15:25:43.907Z,930
2017-05-25T15:26:53.458Z,890
2017-05-25T15:28:03.014Z,910
2017-05-25T15:29:12.066Z,920
2017-05-25T15:30:21.295Z,905
2017-05-25T15:31:30.525Z,930
2017-05-25T15:32:39.756Z,930
2017-05-25T15:33:48.984Z,925
2017-05-25T15:34:58.045Z,925
2017-05-25T15:36:06.956Z,955
2017-05-25T15:37:16.182Z,920
2017-05-25T15:38:25.737Z,900
2017-05-25T15:39:34.647Z,835
2017-05-25T15:40:43.876Z,800
2017-05-25T15:41:53.107Z,840
2017-05-25T15:43:02.343Z,890
2017-05-25T15:44:11.580Z,920
2017-05-25T15:45:20.484Z,965
2017-05-25T15:46:29.715Z,895
2017-05-25T15:47:38.617Z,860
2017-05-25T15:48:48.173Z,870
2017-05-25T15:49:57.070Z,870
2017-05-25T15:51:05.976Z,825
2017-05-25T15:52:15.041Z,800
2017-05-25T15:53:24.268Z,775
2017-05-25T15:54:34.251Z,770
2017-05-25T15:55:43.477Z,770
2017-05-25T15:56:52.382Z,775
2017-05-25T15:58:01.296Z,775
2017-05-25T15:59:10.849Z,800
2017-05-25T16:00:20.081Z,815
2017-05-25T16:01:29.314Z,830
2017-05-25T16:02:38.545Z,840
2017-05-25T16:03:47.609Z,855
2017-05-25T16:04:56.512Z,870
2017-05-25T16:06:05.740Z,850
2017-05-25T16:07:14.646Z,850